Time,TemperatureF,DewpointF,PressureIn,WindDirection,WindDirectionDegrees,WindSpeedMPH,WindSpeedGustMPH,Humidity,HourlyPrecipIn,Conditions,Clouds,dailyrainin,SolarRadiationWatts/m^2,SoftwareType,DateUTC
2013-02-03 00:00:00,2.8,-2.2,30.06,WSW,246,8.0,8.0,79,0.00,CLR,SKC,0.00,0.0,WeatherDisplay:10.37,2013-02-03 06:00:00,
2013-02-03 00:05:00,3.0,-2.0,30.05,WSW,237,6.9,6.9,79,0.00,CLR,SKC,0.00,0.0,WeatherDisplay:10.37,2013-02-03 06:05:00,
2013-02-03 00:11:00,3.0,-2.0,30.05,WSW,240,8.0,8.0,79,0.00,CLR,SKC,0.00,0.0,WeatherDisplay:10.37,2013-02-03 06:11:00,
2013-02-03 00:16:00,3.0,-2.0,30.05,WSW,244,6.9,6.9,79,0.00,CLR,SKC,0.00,0.0,WeatherDisplay:10.37,2013-02-03 06:16:00,
2013-02-03 00:21:00,3.0,-2.0,30.05,West,261,6.9,6.9,79,0.00,CLR,SKC,0.00,0.0,WeatherDisplay:10.37,2013-02-03 06:21:00,
2013-02-03 00:26:00,3.0,-2.0,30.05,West,261,5.8,5.8,79,0.00,CLR,SKC,0.00,0.0,WeatherDisplay:10.37,2013-02-03 06:26:00,
2013-02-03 00:31:00,3.0,-2.0,30.04,WSW,250,6.9,6.9,79,0.00,CLR,SKC,0.00,0.0,WeatherDisplay:10.37,2013-02-03 06:31:00,
2013-02-03 00:36:00,3.0,-2.0,30.04,WSW,239,5.8,5.8,79,0.00,CLR,SKC,0.00,0.0,WeatherDisplay:10.37,2013-02-03 06:36:00,
2013-02-03 00:41:00,3.0,-2.0,30.04,SW,235,6.9,6.9,79,0.00,CLR,SKC,0.00,0.0,WeatherDisplay:10.37,2013-02-03 06:41:00,
2013-02-03 00:46:00,3.0,-2.0,30.03,WSW,237,6.9,6.9,79,0.00,CLR,SKC,0.00,0.0,WeatherDisplay:10.37,2013-02-03 06:46:00,
2013-02-03 00:52:00,3.0,-2.0,30.03,WSW,246,5.0,5.0,79,0.00,CLR,SKC,0.00,0.0,WeatherDisplay:10.37,2013-02-03 06:52:00,
2013-02-03 00:57:00,3.0,-2.0,30.03,WSW,247,6.9,6.9,79,0.00,CLR,SKC,0.00,0.0,WeatherDisplay:10.37,2013-02-03 06:57:00,
2013-02-03 01:02:00,3.0,-2.0,30.03,WSW,250,6.9,6.9,79,0.00,CLR,SKC,0.00,0.0,WeatherDisplay:10.37,2013-02-03 07:02:00,
2013-02-03 01:07:00,3.0,-2.0,30.02,SW,235,5.8,5.8,79,0.00,CLR,SKC,0.00,0.0,WeatherDisplay:10.37,2013-02-03 07:07:00,
2013-02-03 01:12:00,3.0,-2.0,30.02,SW,236,7.0,7.0,79,0.00,CLR,SKC,0.00,0.0,WeatherDisplay:10.37,2013-02-03 07:12:00,
2013-02-03 01:17:00,3.0,-2.0,30.02,WSW,237,6.0,6.0,79,0.00,CLR,SKC,0.00,0.0,WeatherDisplay:10.37,2013-02-03 07:17:00,
2013-02-03 01:22:00,3.0,-2.0,30.02,WSW,246,5.8,5.8,79,0.00,CLR,SKC,0.00,0.0,WeatherDisplay:10.37,2013-02-03 07:22:00,
2013-02-03 01:28:00,3.0,-2.0,30.02,WSW,252,4.6,4.6,79,0.00,CLR,SKC,0.00,0.0,WeatherDisplay:10.37,2013-02-03 07:28:00,
2013-02-03 01:33:00,3.0,-2.0,30.02,West,261,5.8,5.8,79,0.00,CLR,SKC,0.00,0.0,WeatherDisplay:10.37,2013-02-03 07:33:00,
2013-02-03 01:38:00,3.0,-2.0,30.02,West,266,6.0,6.0,79,0.00,CLR,SKC,0.00,0.0,WeatherDisplay:10.37,2013-02-03 07:38:00,
2013-02-03 01:43:00,3.0,-2.0,30.02,West,266,6.9,6.9,79,0.00,CLR,SKC,0.00,0.0,WeatherDisplay:10.37,2013-02-03 07:43:00,
2013-02-03 01:48:00,3.2,-1.8,30.03,WSW,255,10.4,10.4,79,0.00,CLR,SKC,0.00,0.0,WeatherDisplay:10.37,2013-02-03 07:48:00,
2013-02-03 01:53:00,3.2,-1.6,30.02,WSW,257,7.0,7.0,80,0.00,CLR,SKC,0.00,0.0,WeatherDisplay:10.37,2013-02-03 07:53:00,
2013-02-03 01:58:00,3.2,-1.6,30.03,WSW,254,8.1,8.1,80,0.00,CLR,SKC,0.00,0.0,WeatherDisplay:10.37,2013-02-03 07:58:00,
2013-02-03 02:03:00,3.2,-1.6,30.03,West,279,11.0,11.0,80,0.00,CLR,SKC,0.00,0.0,WeatherDisplay:10.37,2013-02-03 08:03:00,
2013-02-03 02:09:00,3.2,-1.6,30.02,West,266,8.1,8.1,80,0.00,CLR,SKC,0.00,0.0,WeatherDisplay:10.37,2013-02-03 08:09:00,
2013-02-03 02:14:00,3.4,-1.4,30.02,West,266,6.9,6.9,80,0.00,CLR,SKC,0.00,0.0,WeatherDisplay:10.37,2013-02-03 08:14:00,
2013-02-03 02:19:00,3.4,-1.4,30.02,West,266,7.0,7.0,80,0.00,CLR,SKC,0.00,0.0,WeatherDisplay:10.37,2013-02-03 08:19:00,
2013-02-03 02:24:00,3.4,-1.4,30.02,West,266,8.1,8.1,80,0.00,CLR,SKC,0.00,0.0,WeatherDisplay:10.37,2013-02-03 08:24:00,
2013-02-03 02:29:00,3.4,-2.5,30.02,West,266,9.2,9.2,76,0.00,CLR,SKC,0.00,0.0,WeatherDisplay:10.37,2013-02-03 08:29:00,
2013-02-03 02:34:00,3.4,-1.4,30.02,West,266,11.5,11.5,80,0.00,CLR,SKC,0.00,0.0,WeatherDisplay:10.37,2013-02-03 08:34:00,
2013-02-03 02:39:00,3.4,-1.4,30.02,WNW,285,12.7,12.7,80,0.00,CLR,SKC,0.00,0.0,WeatherDisplay:10.37,2013-02-03 08:39:00,
2013-02-03 02:45:00,3.4,-1.4,30.02,West,266,11.5,11.5,80,0.00,CLR,SKC,0.00,0.0,WeatherDisplay:10.37,2013-02-03 08:45:00,
2013-02-03 02:50:00,3.4,-1.4,30.01,West,280,10.4,10.4,80,0.00,CLR,SKC,0.00,0.0,WeatherDisplay:10.37,2013-02-03 08:50:00,
2013-02-03 02:55:00,3.5,-1.3,30.01,West,266,9.2,9.2,80,0.00,CLR,SKC,0.00,0.0,WeatherDisplay:10.37,2013-02-03 08:55:00,
2013-02-03 03:00:00,3.5,-1.3,30.01,WNW,291,10.4,10.4,80,0.00,CLR,SKC,0.00,0.0,WeatherDisplay:10.37,2013-02-03 09:00:00,
2013-02-03 03:05:00,3.5,-1.6,30.01,WNW,296,10.4,10.4,79,0.00,CLR,SKC,0.00,0.0,WeatherDisplay:10.37,2013-02-03 09:05:00,
2013-02-03 03:10:00,3.5,-1.6,30.01,WNW,298,10.0,10.0,79,0.00,CLR,SKC,0.00,0.0,WeatherDisplay:10.37,2013-02-03 09:10:00,
2013-02-03 03:15:00,3.5,-1.6,30.01,West,276,8.1,8.1,79,0.00,CLR,SKC,0.00,0.0,WeatherDisplay:10.37,2013-02-03 09:15:00,
2013-02-03 03:20:00,3.5,-1.0,30.01,West,281,10.0,10.0,81,0.00,CLR,SKC,0.00,0.0,WeatherDisplay:10.37,2013-02-03 09:20:00,
2013-02-03 03:26:00,3.5,-1.3,30.01,West,279,9.0,9.0,80,0.00,CLR,SKC,0.00,0.0,WeatherDisplay:10.37,2013-02-03 09:26:00,
2013-02-03 03:31:00,3.5,-1.6,30.01,WNW,283,6.9,6.9,79,0.00,CLR,SKC,0.00,0.0,WeatherDisplay:10.37,2013-02-03 09:31:00,
2013-02-03 03:36:00,3.5,-1.3,30.01,West,266,11.0,11.0,80,0.00,CLR,SKC,0.00,0.0,WeatherDisplay:10.37,2013-02-03 09:36:00,
2013-02-03 03:41:00,3.5,-1.3,30.01,West,279,10.4,10.4,80,0.00,CLR,SKC,0.00,0.0,WeatherDisplay:10.37,2013-02-03 09:41:00,
2013-02-03 03:46:00,3.5,-1.3,30.00,WNW,285,11.5,11.5,80,0.00,CLR,SKC,0.00,0.0,WeatherDisplay:10.37,2013-02-03 09:46:00,
2013-02-03 03:51:00,3.5,-1.3,30.00,West,276,11.5,11.5,80,0.00,CLR,SKC,0.00,0.0,WeatherDisplay:10.37,2013-02-03 09:51:00,
2013-02-03 03:56:00,3.7,-1.1,30.00,West,266,11.0,11.0,80,0.00,CLR,SKC,0.00,0.0,WeatherDisplay:10.37,2013-02-03 09:56:00,
2013-02-03 04:02:00,3.7,-1.1,30.01,WNW,286,11.5,11.5,80,0.00,CLR,SKC,0.00,0.0,WeatherDisplay:10.37,2013-02-03 10:02:00,
2013-02-03 04:07:00,3.7,-1.1,30.01,West,271,15.0,15.0,80,0.00,CLR,SKC,0.00,0.0,WeatherDisplay:10.37,2013-02-03 10:07:00,
2013-02-03 04:12:00,3.7,-1.1,30.01,West,276,11.5,11.5,80,0.00,CLR,SKC,0.00,0.0,WeatherDisplay:10.37,2013-02-03 10:12:00,
2013-02-03 04:17:00,3.7,-1.1,30.01,West,275,9.2,9.2,80,0.00,CLR,SKC,0.00,0.0,WeatherDisplay:10.37,2013-02-03 10:17:00,
2013-02-03 04:22:00,3.7,-1.1,30.01,West,279,11.5,11.5,80,0.00,CLR,SKC,0.00,0.0,WeatherDisplay:10.37,2013-02-03 10:22:00,
2013-02-03 04:27:00,3.7,-1.1,30.02,West,279,10.4,10.4,80,0.00,CLR,SKC,0.00,0.0,WeatherDisplay:10.37,2013-02-03 10:27:00,
2013-02-03 04:32:00,3.7,-1.1,30.02,West,281,9.2,9.2,80,0.00,CLR,SKC,0.00,0.0,WeatherDisplay:10.37,2013-02-03 10:32:00,
2013-02-03 04:37:00,3.7,-1.1,30.02,WNW,285,9.2,9.2,80,0.00,CLR,SKC,0.00,0.0,WeatherDisplay:10.37,2013-02-03 10:37:00,
2013-02-03 04:43:00,3.9,-0.9,30.01,WNW,289,11.5,11.5,80,0.00,CLR,SKC,0.00,0.0,WeatherDisplay:10.37,2013-02-03 10:43:00,
2013-02-03 04:48:00,3.9,-0.9,30.01,WNW,297,11.5,11.5,80,0.00,CLR,SKC,0.00,0.0,WeatherDisplay:10.37,2013-02-03 10:48:00,
2013-02-03 04:53:00,3.9,-0.9,30.01,West,266,11.5,11.5,80,0.00,CLR,SKC,0.00,0.0,WeatherDisplay:10.37,2013-02-03 10:53:00,
2013-02-03 04:58:00,3.9,-0.9,30.02,WNW,282,10.4,10.4,80,0.00,CLR,SKC,0.00,0.0,WeatherDisplay:10.37,2013-02-03 10:58:00,
2013-02-03 05:03:00,3.9,-1.2,30.02,WNW,288,13.8,13.8,79,0.00,CLR,SKC,0.00,0.0,WeatherDisplay:10.37,2013-02-03 11:03:00,
2013-02-03 05:08:00,3.9,-0.9,30.02,WNW,297,14.0,14.0,80,0.00,CLR,SKC,0.00,0.0,WeatherDisplay:10.37,2013-02-03 11:08:00,
2013-02-03 05:13:00,3.9,-1.2,30.02,West,266,12.0,12.0,79,0.00,CLR,SKC,0.00,0.0,WeatherDisplay:10.37,2013-02-03 11:13:00,
2013-02-03 05:19:00,4.1,-1.0,30.02,West,266,11.5,11.5,79,0.00,CLR,SKC,0.00,0.0,WeatherDisplay:10.37,2013-02-03 11:19:00,
2013-02-03 05:24:00,4.1,-1.0,30.02,West,266,13.8,13.8,79,0.00,CLR,SKC,0.00,0.0,WeatherDisplay:10.37,2013-02-03 11:24:00,
2013-02-03 05:29:00,3.9,-1.2,30.02,WNW,300,12.0,12.0,79,0.00,CLR,SKC,0.00,0.0,WeatherDisplay:10.37,2013-02-03 11:29:00,
2013-02-03 05:34:00,3.9,-1.2,30.02,WNW,283,11.5,11.5,79,0.00,CLR,SKC,0.00,0.0,WeatherDisplay:10.37,2013-02-03 11:34:00,
2013-02-03 05:39:00,3.9,-1.2,30.02,WNW,291,19.6,19.6,79,0.00,CLR,SKC,0.00,0.0,WeatherDisplay:10.37,2013-02-03 11:39:00,
2013-02-03 05:44:00,3.9,-1.2,30.03,West,278,13.0,13.0,79,0.00,CLR,SKC,0.00,0.0,WeatherDisplay:10.37,2013-02-03 11:44:00,
2013-02-03 05:49:00,3.9,-1.2,30.03,West,275,16.1,16.1,79,0.00,CLR,SKC,0.00,0.0,WeatherDisplay:10.37,2013-02-03 11:49:00,
2013-02-03 05:54:00,3.9,-1.2,30.03,West,276,12.7,12.7,79,0.00,CLR,SKC,0.00,0.0,WeatherDisplay:10.37,2013-02-03 11:54:00,
2013-02-03 06:00:00,4.1,-0.7,30.03,NW,314,11.5,11.5,80,0.00,CLR,SKC,0.00,0.0,WeatherDisplay:10.37,2013-02-03 12:00:00,
2013-02-03 06:05:00,4.1,-0.7,30.03,West,266,12.7,12.7,80,0.00,CLR,SKC,0.00,0.0,WeatherDisplay:10.37,2013-02-03 12:05:00,
2013-02-03 06:10:00,4.1,-0.7,30.02,West,281,10.4,10.4,80,0.00,CLR,SKC,0.00,0.0,WeatherDisplay:10.37,2013-02-03 12:10:00,
2013-02-03 06:15:00,4.1,-0.7,30.03,West,279,16.1,16.1,80,0.00,CLR,SKC,0.00,0.0,WeatherDisplay:10.37,2013-02-03 12:15:00,
2013-02-03 06:20:00,4.3,-0.5,30.03,WNW,292,11.5,11.5,80,0.00,CLR,SKC,0.00,0.0,WeatherDisplay:10.37,2013-02-03 12:20:00,
2013-02-03 06:25:00,4.3,-0.5,30.03,West,271,16.0,16.0,80,0.00,CLR,SKC,0.00,0.0,WeatherDisplay:10.37,2013-02-03 12:25:00,
2013-02-03 06:30:00,4.3,-0.5,30.03,West,281,11.5,11.5,80,0.00,CLR,SKC,0.00,0.0,WeatherDisplay:10.37,2013-02-03 12:30:00,
2013-02-03 06:36:00,4.3,-0.8,30.03,West,275,18.0,18.0,79,0.00,CLR,SKC,0.00,0.0,WeatherDisplay:10.37,2013-02-03 12:36:00,
2013-02-03 06:41:00,4.3,-0.8,30.03,West,281,18.4,18.4,79,0.00,CLR,SKC,0.00,0.0,WeatherDisplay:10.37,2013-02-03 12:41:00,
2013-02-03 06:46:00,4.3,-0.8,30.03,West,266,17.3,17.3,79,0.00,CLR,SKC,0.00,0.0,WeatherDisplay:10.37,2013-02-03 12:46:00,
2013-02-03 06:51:00,4.5,-0.6,30.04,West,278,17.3,17.3,79,0.00,CLR,SKC,0.00,0.0,WeatherDisplay:10.37,2013-02-03 12:51:00,
2013-02-03 06:56:00,4.3,-0.8,30.04,West,281,11.5,11.5,79,0.00,CLR,SKC,0.00,0.0,WeatherDisplay:10.37,2013-02-03 12:56:00,
2013-02-03 07:01:00,4.3,-1.0,30.04,West,276,13.8,13.8,78,0.00,CLR,SKC,0.00,0.0,WeatherDisplay:10.37,2013-02-03 13:01:00,
2013-02-03 07:06:00,4.3,-1.0,30.04,West,266,15.0,15.0,78,0.00,CLR,SKC,0.00,0.0,WeatherDisplay:10.37,2013-02-03 13:06:00,
2013-02-03 07:11:00,4.3,-1.0,30.04,WNW,287,14.0,14.0,78,0.00,CLR,SKC,0.00,0.0,WeatherDisplay:10.37,2013-02-03 13:11:00,
2013-02-03 07:17:00,4.3,-1.0,30.04,NW,321,16.1,16.1,78,0.00,CLR,SKC,0.00,0.0,WeatherDisplay:10.37,2013-02-03 13:17:00,
2013-02-03 07:22:00,4.1,-1.2,30.04,WNW,295,15.0,15.0,78,0.00,CLR,SKC,0.00,0.0,WeatherDisplay:10.37,2013-02-03 13:22:00,
2013-02-03 07:27:00,3.9,-1.7,30.05,WNW,300,13.8,13.8,77,0.00,CLR,SKC,0.00,0.0,WeatherDisplay:10.37,2013-02-03 13:27:00,
2013-02-03 07:32:00,3.9,-1.7,30.05,West,279,13.8,13.8,77,0.00,CLR,SKC,0.00,0.0,WeatherDisplay:10.37,2013-02-03 13:32:00,
2013-02-03 07:37:00,3.7,-1.9,30.05,NW,304,11.5,11.5,77,0.00,CLR,SKC,0.00,0.0,WeatherDisplay:10.37,2013-02-03 13:37:00,
2013-02-03 07:42:00,3.5,-2.4,30.05,WNW,285,11.5,11.5,76,0.00,CLR,SKC,0.00,0.0,WeatherDisplay:10.37,2013-02-03 13:42:00,
2013-02-03 07:47:00,3.4,-2.5,30.05,WNW,288,9.2,9.2,76,0.00,CLR,SKC,0.00,0.0,WeatherDisplay:10.37,2013-02-03 13:47:00,
2013-02-03 07:53:00,3.2,-2.7,30.05,WNW,285,10.4,10.4,76,0.00,CLR,SKC,0.00,0.0,WeatherDisplay:10.37,2013-02-03 13:53:00,
2013-02-03 07:58:00,3.0,-2.9,30.05,West,281,11.5,11.5,76,0.00,CLR,SKC,0.00,0.0,WeatherDisplay:10.37,2013-02-03 13:58:00,
2013-02-03 08:03:00,2.8,-3.1,30.05,WNW,292,13.8,13.8,76,0.00,CLR,SKC,0.00,0.0,WeatherDisplay:10.37,2013-02-03 14:03:00,
2013-02-03 08:08:00,2.8,-2.8,30.05,NW,308,8.1,8.1,77,0.00,CLR,SKC,0.00,0.0,WeatherDisplay:10.37,2013-02-03 14:08:00,
2013-02-03 08:13:00,2.8,-2.8,30.05,NW,310,9.2,9.2,77,0.00,CLR,SKC,0.00,0.0,WeatherDisplay:10.37,2013-02-03 14:13:00,
2013-02-03 08:18:00,2.8,-2.8,30.06,West,266,11.5,11.5,77,0.00,CLR,SKC,0.00,0.0,WeatherDisplay:10.37,2013-02-03 14:18:00,
2013-02-03 08:23:00,2.8,-2.8,30.06,NW,304,11.5,11.5,77,0.00,CLR,SKC,0.00,0.0,WeatherDisplay:10.37,2013-02-03 14:23:00,
2013-02-03 08:28:00,3.0,-2.6,30.05,WNW,298,8.1,8.1,77,0.00,CLR,SKC,0.00,0.0,WeatherDisplay:10.37,2013-02-03 14:28:00,
2013-02-03 08:34:00,3.0,-2.6,30.05,NW,325,10.4,10.4,77,0.00,CLR,SKC,0.00,0.0,WeatherDisplay:10.37,2013-02-03 14:34:00,
2013-02-03 08:39:00,3.0,-2.6,30.05,NW,310,13.0,13.0,77,0.00,CLR,SKC,0.00,0.0,WeatherDisplay:10.37,2013-02-03 14:39:00,
2013-02-03 08:44:00,3.2,-2.7,30.06,NW,322,9.2,9.2,76,0.00,CLR,SKC,0.00,0.0,WeatherDisplay:10.37,2013-02-03 14:44:00,
2013-02-03 08:49:00,3.2,-2.7,30.06,WSW,254,10.4,10.4,76,0.00,CLR,SKC,0.00,0.0,WeatherDisplay:10.37,2013-02-03 14:49:00,
2013-02-03 08:54:00,3.4,-2.5,30.06,WNW,292,10.4,10.4,76,0.00,CLR,SKC,0.00,0.0,WeatherDisplay:10.37,2013-02-03 14:54:00,
2013-02-03 08:59:00,3.4,-2.5,30.07,WNW,290,11.5,11.5,76,0.00,CLR,SKC,0.00,0.0,WeatherDisplay:10.37,2013-02-03 14:59:00,
2013-02-03 09:04:00,3.5,-2.7,30.07,WNW,285,13.8,13.8,75,0.00,OVC,SKC,0.00,0.0,WeatherDisplay:10.37,2013-02-03 15:04:00,
2013-02-03 09:10:00,3.5,-2.9,30.07,NNW,329,12.7,12.7,74,0.00,OVC,SKC,0.00,0.0,WeatherDisplay:10.37,2013-02-03 15:10:00,
2013-02-03 09:15:00,3.5,-2.9,30.07,WNW,292,13.8,13.8,74,0.00,OVC,SKC,0.00,0.0,WeatherDisplay:10.37,2013-02-03 15:15:00,
2013-02-03 09:20:00,3.7,-2.7,30.07,WNW,282,13.8,13.8,74,0.00,OVC,SKC,0.00,0.0,WeatherDisplay:10.37,2013-02-03 15:20:00,
2013-02-03 09:25:00,3.9,-2.5,30.07,WNW,293,9.2,9.2,74,0.00,OVC,SKC,0.00,0.0,WeatherDisplay:10.37,2013-02-03 15:25:00,
2013-02-03 09:30:00,4.1,-2.4,30.07,West,277,12.7,12.7,74,0.00,OVC,SKC,0.00,0.0,WeatherDisplay:10.37,2013-02-03 15:30:00,
2013-02-03 09:35:00,4.1,-2.4,30.07,WNW,296,15.0,15.0,74,0.00,OVC,SKC,0.00,0.0,WeatherDisplay:10.37,2013-02-03 15:35:00,
2013-02-03 09:40:00,4.3,-2.4,30.08,WNW,284,12.0,12.0,73,0.00,OVC,SKC,0.00,0.0,WeatherDisplay:10.37,2013-02-03 15:40:00,
2013-02-03 09:45:00,4.3,-2.4,30.08,WNW,285,12.0,12.0,73,0.00,OVC,SKC,0.00,0.0,WeatherDisplay:10.37,2013-02-03 15:45:00,
2013-02-03 09:51:00,4.5,-2.3,30.07,WNW,286,17.3,17.3,73,0.00,OVC,SKC,0.00,0.0,WeatherDisplay:10.37,2013-02-03 15:51:00,
2013-02-03 09:56:00,4.5,-2.5,30.07,WNW,292,16.0,16.0,72,0.00,OVC,SKC,0.00,0.0,WeatherDisplay:10.37,2013-02-03 15:56:00,
2013-02-03 10:01:00,4.3,-2.7,30.07,WNW,299,15.0,15.0,72,0.00,OVC,SKC,0.00,0.0,WeatherDisplay:10.37,2013-02-03 16:01:00,
2013-02-03 10:06:00,4.3,-2.7,30.07,WNW,289,10.4,10.4,72,0.00,OVC,SKC,0.00,0.0,WeatherDisplay:10.37,2013-02-03 16:06:00,
2013-02-03 10:11:00,4.3,-2.7,30.08,WNW,295,11.5,11.5,72,0.00,OVC,SKC,0.00,0.0,WeatherDisplay:10.37,2013-02-03 16:11:00,
2013-02-03 10:16:00,4.3,-3.0,30.08,WNW,295,12.7,12.7,71,0.00,OVC,SKC,0.00,0.0,WeatherDisplay:10.37,2013-02-03 16:16:00,
2013-02-03 10:21:00,4.3,-3.3,30.08,West,266,15.0,15.0,70,0.00,OVC,SKC,0.00,0.0,WeatherDisplay:10.37,2013-02-03 16:21:00,
2013-02-03 10:27:00,4.3,-3.3,30.08,West,281,18.4,18.4,70,0.00,OVC,SKC,0.00,0.0,WeatherDisplay:10.37,2013-02-03 16:27:00,
2013-02-03 10:32:00,4.5,-3.4,30.08,West,278,16.1,16.1,69,0.00,OVC,SKC,0.00,0.0,WeatherDisplay:10.37,2013-02-03 16:32:00,
2013-02-03 10:37:00,4.5,-3.4,30.08,NW,325,15.0,15.0,69,0.00,OVC,SKC,0.00,0.0,WeatherDisplay:10.37,2013-02-03 16:37:00,
2013-02-03 10:42:00,4.7,-2.9,30.08,West,277,17.0,17.0,70,0.00,OVC,SKC,0.00,0.0,WeatherDisplay:10.37,2013-02-03 16:42:00,
2013-02-03 10:47:00,4.8,-3.1,30.09,West,275,11.5,11.5,69,0.00,OVC,SKC,0.00,0.0,WeatherDisplay:10.37,2013-02-03 16:47:00,
2013-02-03 10:52:00,4.8,-3.5,30.09,NNW,346,11.5,11.5,68,0.00,OVC,SKC,0.00,0.0,WeatherDisplay:10.37,2013-02-03 16:52:00,
2013-02-03 10:57:00,5.0,-3.6,30.09,NW,304,12.7,12.7,67,0.00,OVC,SKC,0.00,0.0,WeatherDisplay:10.37,2013-02-03 16:57:00,
2013-02-03 11:02:00,5.2,-3.4,30.08,NW,306,14.0,14.0,67,0.00,OVC,SKC,0.00,0.0,WeatherDisplay:10.37,2013-02-03 17:02:00,
2013-02-03 11:08:00,5.4,-2.9,30.08,West,266,19.6,19.6,68,0.00,OVC,SKC,0.00,0.0,WeatherDisplay:10.37,2013-02-03 17:08:00,
2013-02-03 11:13:00,5.6,-3.0,30.08,NW,305,13.8,13.8,67,0.00,OVC,SKC,0.00,0.0,WeatherDisplay:10.37,2013-02-03 17:13:00,
2013-02-03 11:18:00,5.8,-3.4,30.08,WNW,301,14.0,14.0,65,0.00,OVC,SKC,0.00,0.0,WeatherDisplay:10.37,2013-02-03 17:18:00,
2013-02-03 11:23:00,5.8,-3.4,30.08,WNW,282,16.1,16.1,65,0.00,OVC,SKC,0.00,0.0,WeatherDisplay:10.37,2013-02-03 17:23:00,
2013-02-03 11:28:00,5.8,-3.4,30.08,NW,309,16.1,16.1,65,0.00,OVC,SKC,0.00,0.0,WeatherDisplay:10.37,2013-02-03 17:28:00,
2013-02-03 11:33:00,5.6,-3.6,30.08,NW,312,13.0,13.0,65,0.00,OVC,SKC,0.00,0.0,WeatherDisplay:10.37,2013-02-03 17:33:00,
2013-02-03 11:38:00,5.6,-4.0,30.08,West,278,11.5,11.5,64,0.00,OVC,SKC,0.00,0.0,WeatherDisplay:10.37,2013-02-03 17:38:00,
2013-02-03 11:44:00,5.6,-3.6,30.08,WNW,285,15.0,15.0,65,0.00,OVC,SKC,0.00,0.0,WeatherDisplay:10.37,2013-02-03 17:44:00,
2013-02-03 11:49:00,5.6,-3.3,30.08,WNW,289,18.4,18.4,66,0.00,OVC,SKC,0.00,0.0,WeatherDisplay:10.37,2013-02-03 17:49:00,
2013-02-03 11:54:00,5.6,-3.3,30.08,WNW,282,9.2,9.2,66,0.00,OVC,SKC,0.00,0.0,WeatherDisplay:10.37,2013-02-03 17:54:00,
2013-02-03 11:59:00,5.6,-3.6,30.07,West,279,11.5,11.5,65,0.00,OVC,SKC,0.00,0.0,WeatherDisplay:10.37,2013-02-03 17:59:00,
2013-02-03 12:04:00,5.6,-4.0,30.08,WNW,290,16.1,16.1,64,0.00,OVC,SKC,0.00,0.0,WeatherDisplay:10.37,2013-02-03 18:04:00,
2013-02-03 12:09:00,5.8,-3.8,30.08,West,281,8.1,8.1,64,0.00,OVC,SKC,0.00,0.0,WeatherDisplay:10.37,2013-02-03 18:09:00,
2013-02-03 12:14:00,5.8,-3.4,30.08,West,266,11.5,11.5,65,0.00,OVC,SKC,0.00,0.0,WeatherDisplay:10.37,2013-02-03 18:14:00,
2013-02-03 12:19:00,6.0,-3.3,30.08,WNW,283,9.2,9.2,65,0.00,OVC,SKC,0.00,0.0,WeatherDisplay:10.37,2013-02-03 18:19:00,
2013-02-03 12:25:00,6.3,-3.3,30.08,NW,304,17.3,17.3,64,0.00,OVC,SKC,0.00,0.0,WeatherDisplay:10.37,2013-02-03 18:25:00,
2013-02-03 12:30:00,6.5,-3.8,30.08,WNW,298,9.2,9.2,62,0.00,OVC,SKC,0.00,0.0,WeatherDisplay:10.37,2013-02-03 18:30:00,
2013-02-03 12:35:00,6.7,-3.6,30.08,WNW,286,15.0,15.0,62,0.00,OVC,SKC,0.00,0.0,WeatherDisplay:10.37,2013-02-03 18:35:00,
2013-02-03 12:40:00,6.9,-2.7,30.08,West,271,13.0,13.0,64,0.00,OVC,SKC,0.00,0.0,WeatherDisplay:10.37,2013-02-03 18:40:00,
2013-02-03 12:45:00,6.9,-3.1,30.08,West,266,18.4,18.4,63,0.00,OVC,SKC,0.00,0.0,WeatherDisplay:10.37,2013-02-03 18:45:00,
2013-02-03 12:50:00,7.0,-3.3,30.08,WNW,295,12.0,12.0,62,0.00,OVC,SKC,0.00,0.0,WeatherDisplay:10.37,2013-02-03 18:50:00,
2013-02-03 12:55:00,6.9,-4.4,30.07,NNW,330,11.5,11.5,59,0.00,OVC,SKC,0.00,0.0,WeatherDisplay:10.37,2013-02-03 18:55:00,
2013-02-03 13:01:00,7.0,-3.6,30.07,NW,304,10.0,10.0,61,0.00,OVC,SKC,0.00,0.0,WeatherDisplay:10.37,2013-02-03 19:01:00,
2013-02-03 13:06:00,7.0,-3.6,30.07,North,359,9.2,9.2,61,0.00,OVC,SKC,0.00,0.0,WeatherDisplay:10.37,2013-02-03 19:06:00,
2013-02-03 13:11:00,7.0,-4.3,30.07,West,275,9.2,9.2,59,0.00,OVC,SKC,0.00,0.0,WeatherDisplay:10.37,2013-02-03 19:11:00,
2013-02-03 13:16:00,7.0,-3.6,30.07,WNW,294,11.5,11.5,61,0.00,OVC,SKC,0.00,0.0,WeatherDisplay:10.37,2013-02-03 19:16:00,
2013-02-03 13:21:00,7.0,-3.6,30.07,WNW,294,10.4,10.4,61,0.00,OVC,SKC,0.00,0.0,WeatherDisplay:10.37,2013-02-03 19:21:00,
2013-02-03 13:26:00,7.2,-3.8,30.07,WSW,250,9.0,9.0,60,0.00,OVC,SKC,0.00,0.0,WeatherDisplay:10.37,2013-02-03 19:26:00,
2013-02-03 13:31:00,7.4,-3.3,30.07,West,266,10.0,10.0,61,0.00,OVC,SKC,0.00,0.0,WeatherDisplay:10.37,2013-02-03 19:31:00,
2013-02-03 13:36:00,7.6,-2.7,30.07,WNW,298,10.0,10.0,62,0.00,OVC,SKC,0.00,0.0,WeatherDisplay:10.37,2013-02-03 19:36:00,
2013-02-03 13:42:00,7.7,-3.3,30.06,WNW,299,11.5,11.5,60,0.00,OVC,SKC,0.00,0.0,WeatherDisplay:10.37,2013-02-03 19:42:00,
2013-02-03 13:47:00,7.9,-2.8,30.06,NW,310,6.9,6.9,61,0.00,OVC,SKC,0.00,0.0,WeatherDisplay:10.37,2013-02-03 19:47:00,
2013-02-03 13:52:00,8.1,-2.2,30.06,WNW,300,10.4,10.4,62,0.00,OVC,SKC,0.00,0.0,WeatherDisplay:10.37,2013-02-03 19:52:00,
2013-02-03 13:57:00,8.3,-2.4,30.06,West,276,11.0,11.0,61,0.00,OVC,SKC,0.00,0.0,WeatherDisplay:10.37,2013-02-03 19:57:00,
2013-02-03 14:02:00,8.6,-2.5,30.06,WSW,256,13.0,13.0,60,0.00,OVC,SKC,0.00,0.0,WeatherDisplay:10.37,2013-02-03 20:02:00,
2013-02-03 14:07:00,8.6,-2.8,30.06,WNW,288,9.2,9.2,59,0.00,OVC,SKC,0.00,0.0,WeatherDisplay:10.37,2013-02-03 20:07:00,
2013-02-03 14:12:00,8.8,-3.0,30.06,WNW,285,12.0,12.0,58,0.00,OVC,SKC,0.00,0.0,WeatherDisplay:10.37,2013-02-03 20:12:00,
2013-02-03 14:18:00,9.0,-2.8,30.06,West,261,11.5,11.5,58,0.00,OVC,SKC,0.00,0.0,WeatherDisplay:10.37,2013-02-03 20:18:00,
2013-02-03 14:23:00,9.0,-2.8,30.06,West,275,11.5,11.5,58,0.00,OVC,SKC,0.00,0.0,WeatherDisplay:10.37,2013-02-03 20:23:00,
2013-02-03 14:28:00,9.0,-2.4,30.07,NW,315,13.8,13.8,59,0.00,OVC,SKC,0.00,0.0,WeatherDisplay:10.37,2013-02-03 20:28:00,
2013-02-03 14:33:00,8.8,-3.4,30.07,NW,304,13.8,13.8,57,0.00,OVC,SKC,0.00,0.0,WeatherDisplay:10.37,2013-02-03 20:33:00,
2013-02-03 14:38:00,8.4,-4.1,30.07,WNW,288,11.5,11.5,56,0.00,OVC,SKC,0.00,0.0,WeatherDisplay:10.37,2013-02-03 20:38:00,
2013-02-03 14:43:00,8.3,-3.5,30.07,West,277,11.5,11.5,58,0.00,OVC,SKC,0.00,0.0,WeatherDisplay:10.37,2013-02-03 20:43:00,
2013-02-03 14:48:00,8.3,-3.8,30.07,West,276,11.5,11.5,57,0.00,OVC,SKC,0.00,0.0,WeatherDisplay:10.37,2013-02-03 20:48:00,
2013-02-03 14:53:00,8.1,-2.9,30.07,NNW,331,9.2,9.2,60,0.00,OVC,SKC,0.00,0.0,WeatherDisplay:10.37,2013-02-03 20:53:00,
2013-02-03 15:00:00,7.9,-4.9,30.07,WNW,301,9.0,14.0,55,0.00,OVC,SKC,0.00,0.0,WeatherDisplay:10.37,2013-02-03 21:00:00,
2013-02-03 15:06:00,7.9,-4.2,30.07,NW,317,13.8,0.0,57,0.00,OVC,SKC,0.00,0.0,WeatherDisplay:10.37,2013-02-03 21:06:00,
2013-02-03 15:12:00,7.9,-3.8,30.07,NW,324,9.2,9.2,58,0.00,OVC,SKC,0.00,0.0,WeatherDisplay:10.37,2013-02-03 21:12:00,
2013-02-03 15:17:00,8.1,-3.6,30.06,NW,321,5.8,5.8,58,0.00,OVC,SKC,0.00,0.0,WeatherDisplay:10.37,2013-02-03 21:17:00,
2013-02-03 15:22:00,8.1,-3.3,30.06,WNW,286,7.0,7.0,59,0.00,OVC,SKC,0.00,0.0,WeatherDisplay:10.37,2013-02-03 21:22:00,
2013-02-03 15:27:00,8.1,-3.3,30.06,West,276,13.8,13.8,59,0.00,OVC,SKC,0.00,0.0,WeatherDisplay:10.37,2013-02-03 21:27:00,
2013-02-03 15:32:00,7.9,-3.5,30.06,WNW,288,12.7,12.7,59,0.00,OVC,SKC,0.00,0.0,WeatherDisplay:10.37,2013-02-03 21:32:00,
2013-02-03 15:37:00,7.9,-3.8,30.06,WNW,282,12.7,12.7,58,0.00,OVC,SKC,0.00,0.0,WeatherDisplay:10.37,2013-02-03 21:37:00,
2013-02-03 15:42:00,7.9,-4.6,30.07,WNW,303,8.1,8.1,56,0.00,OVC,SKC,0.00,0.0,WeatherDisplay:10.37,2013-02-03 21:42:00,
2013-02-03 15:47:00,7.9,-4.9,30.06,WNW,285,9.0,9.0,55,0.00,OVC,SKC,0.00,0.0,WeatherDisplay:10.37,2013-02-03 21:47:00,
2013-02-03 15:53:00,7.9,-3.8,30.06,WNW,294,9.2,9.2,58,0.00,OVC,SKC,0.00,0.0,WeatherDisplay:10.37,2013-02-03 21:53:00,
2013-02-03 15:58:00,7.7,-4.8,30.06,NNW,346,6.0,6.0,56,0.00,OVC,SKC,0.00,0.0,WeatherDisplay:10.37,2013-02-03 21:58:00,
2013-02-03 16:03:00,7.7,-4.0,30.06,NW,317,5.8,5.8,58,0.00,CLR,SKC,0.00,0.0,WeatherDisplay:10.37,2013-02-03 22:03:00,
2013-02-03 16:08:00,7.7,-4.0,30.06,West,276,5.8,5.8,58,0.00,CLR,SKC,0.00,0.0,WeatherDisplay:10.37,2013-02-03 22:08:00,
2013-02-03 16:13:00,7.6,-4.1,30.06,West,266,5.8,5.8,58,0.00,CLR,SKC,0.00,0.0,WeatherDisplay:10.37,2013-02-03 22:13:00,
2013-02-03 16:18:00,7.6,-3.8,30.06,North,350,9.2,9.2,59,0.00,CLR,SKC,0.00,0.0,WeatherDisplay:10.37,2013-02-03 22:18:00,
2013-02-03 16:23:00,7.4,-4.0,30.06,NNW,341,4.0,4.0,59,0.00,CLR,SKC,0.00,0.0,WeatherDisplay:10.37,2013-02-03 22:23:00,
2013-02-03 16:29:00,7.4,-3.3,30.06,WNW,288,5.8,5.8,61,0.00,CLR,SKC,0.00,0.0,WeatherDisplay:10.37,2013-02-03 22:29:00,
2013-02-03 16:34:00,7.2,-3.4,30.06,NNW,336,5.8,5.8,61,0.00,CLR,SKC,0.00,0.0,WeatherDisplay:10.37,2013-02-03 22:34:00,
2013-02-03 16:39:00,7.2,-3.4,30.06,NNW,333,3.5,3.5,61,0.00,CLR,SKC,0.00,0.0,WeatherDisplay:10.37,2013-02-03 22:39:00,
2013-02-03 16:44:00,7.0,-3.6,30.06,NW,321,3.5,3.5,61,0.00,CLR,SKC,0.00,0.0,WeatherDisplay:10.37,2013-02-03 22:44:00,
2013-02-03 16:49:00,6.9,-4.4,30.06,NNW,328,6.9,6.9,59,0.00,CLR,SKC,0.00,0.0,WeatherDisplay:10.37,2013-02-03 22:49:00,
2013-02-03 16:54:00,6.9,-4.1,30.06,NNW,343,3.5,3.5,60,0.00,CLR,SKC,0.00,0.0,WeatherDisplay:10.37,2013-02-03 22:54:00,
2013-02-03 16:59:00,6.7,-3.9,30.06,NNW,345,4.6,4.6,61,0.00,CLR,SKC,0.00,0.0,WeatherDisplay:10.37,2013-02-03 22:59:00,
2013-02-03 17:04:00,6.5,-4.1,30.06,NNW,344,3.0,3.0,61,0.00,CLR,SKC,0.00,0.0,WeatherDisplay:10.37,2013-02-03 23:04:00,
2013-02-03 17:10:00,6.3,-4.0,30.06,NNW,344,2.0,5.0,62,0.00,CLR,SKC,0.00,0.0,WeatherDisplay:10.37,2013-02-03 23:10:00,
2013-02-03 17:15:00,6.0,-4.6,30.06,North,358,6.9,6.9,61,0.00,CLR,SKC,0.00,0.0,WeatherDisplay:10.37,2013-02-03 23:15:00,
2013-02-03 17:20:00,5.8,-4.8,30.06,North,1,4.6,4.6,61,0.00,CLR,SKC,0.00,0.0,WeatherDisplay:10.37,2013-02-03 23:20:00,
2013-02-03 17:25:00,5.4,-5.2,30.06,North,1,3.5,3.5,61,0.00,CLR,SKC,0.00,0.0,WeatherDisplay:10.37,2013-02-03 23:25:00,
2013-02-03 17:30:00,5.0,-5.5,30.06,North,2,4.6,4.6,61,0.00,CLR,SKC,0.00,0.0,WeatherDisplay:10.37,2013-02-03 23:30:00,
2013-02-03 17:35:00,4.7,-5.8,30.06,North,2,4.6,4.6,61,0.00,CLR,SKC,0.00,0.0,WeatherDisplay:10.37,2013-02-03 23:35:00,
2013-02-03 17:40:00,4.3,-5.9,30.06,North,1,5.8,5.8,62,0.00,CLR,SKC,0.00,0.0,WeatherDisplay:10.37,2013-02-03 23:40:00,
2013-02-03 17:46:00,3.9,-5.9,30.06,North,3,5.8,5.8,63,0.00,CLR,SKC,0.00,0.0,WeatherDisplay:10.37,2013-02-03 23:46:00,
2013-02-03 17:51:00,3.7,-5.8,30.06,North,3,4.6,4.6,64,0.00,CLR,SKC,0.00,0.0,WeatherDisplay:10.37,2013-02-03 23:51:00,
2013-02-03 17:56:00,3.4,-6.1,30.07,North,2,5.0,5.0,64,0.00,CLR,SKC,0.00,0.0,WeatherDisplay:10.37,2013-02-03 23:56:00,
2013-02-03 18:01:00,3.0,-6.1,30.07,North,3,5.0,5.0,65,0.00,CLR,SKC,0.00,0.0,WeatherDisplay:10.37,2013-02-04 00:01:00,
2013-02-03 18:06:00,2.6,-6.5,30.07,North,3,4.6,4.6,65,0.00,CLR,SKC,0.00,0.0,WeatherDisplay:10.37,2013-02-04 00:06:00,
2013-02-03 18:11:00,2.4,-6.7,30.07,North,5,5.8,5.8,65,0.00,CLR,SKC,0.00,0.0,WeatherDisplay:10.37,2013-02-04 00:11:00,
2013-02-03 18:16:00,2.0,-7.4,30.07,North,7,3.5,3.5,64,0.00,CLR,SKC,0.00,0.0,WeatherDisplay:10.37,2013-02-04 00:16:00,
2013-02-03 18:21:00,1.7,-7.7,30.08,North,7,3.5,3.5,64,0.00,CLR,SKC,0.00,0.0,WeatherDisplay:10.37,2013-02-04 00:21:00,
2013-02-03 18:27:00,1.3,-8.1,30.08,North,7,2.3,2.3,64,0.00,CLR,SKC,0.00,0.0,WeatherDisplay:10.37,2013-02-04 00:27:00,
2013-02-03 18:32:00,0.5,-9.1,30.08,North,7,3.5,3.5,63,0.00,CLR,SKC,0.00,0.0,WeatherDisplay:10.37,2013-02-04 00:32:00,
2013-02-03 18:37:00,0.1,-9.2,30.08,North,7,2.3,2.3,64,0.00,CLR,SKC,0.00,0.0,WeatherDisplay:10.37,2013-02-04 00:37:00,
2013-02-03 18:42:00,-0.2,-9.5,30.08,North,7,3.5,3.5,64,0.00,CLR,SKC,0.00,0.0,WeatherDisplay:10.37,2013-02-04 00:42:00,
2013-02-03 18:47:00,-0.6,-9.6,30.08,North,7,5.0,5.0,65,0.00,CLR,SKC,0.00,0.0,WeatherDisplay:10.37,2013-02-04 00:47:00,
2013-02-03 18:52:00,-1.0,-9.9,30.08,North,7,3.5,3.5,65,0.00,CLR,SKC,0.00,0.0,WeatherDisplay:10.37,2013-02-04 00:52:00,
2013-02-03 18:57:00,-1.4,-10.0,30.08,North,7,2.3,2.3,66,0.00,CLR,SKC,0.00,0.0,WeatherDisplay:10.37,2013-02-04 00:57:00,
2013-02-03 19:03:00,-1.6,-10.2,30.08,North,7,0.0,0.0,66,0.00,CLR,SKC,0.00,0.0,WeatherDisplay:10.37,2013-02-04 01:03:00,
2013-02-03 19:08:00,-2.2,-11.1,30.08,North,7,0.0,0.0,65,0.00,CLR,SKC,0.00,0.0,WeatherDisplay:10.37,2013-02-04 01:08:00,
2013-02-03 19:13:00,-2.8,-11.4,30.08,North,7,0.0,0.0,66,0.00,CLR,SKC,0.00,0.0,WeatherDisplay:10.37,2013-02-04 01:13:00,
2013-02-03 19:18:00,-3.1,-11.6,30.08,North,7,0.0,0.0,66,0.00,CLR,SKC,0.00,0.0,WeatherDisplay:10.37,2013-02-04 01:18:00,
2013-02-03 19:23:00,-3.5,-12.0,30.08,North,7,2.3,2.3,66,0.00,CLR,SKC,0.00,0.0,WeatherDisplay:10.37,2013-02-04 01:23:00,
2013-02-03 19:28:00,-3.9,-12.4,30.09,North,7,2.3,2.3,66,0.00,CLR,SKC,0.00,0.0,WeatherDisplay:10.37,2013-02-04 01:28:00,
2013-02-03 19:33:00,-4.3,-12.8,30.09,North,7,2.3,2.3,66,0.00,CLR,SKC,0.00,0.0,WeatherDisplay:10.37,2013-02-04 01:33:00,
2013-02-03 19:38:00,-4.6,-12.8,30.09,North,7,2.3,2.3,67,0.00,CLR,SKC,0.00,0.0,WeatherDisplay:10.37,2013-02-04 01:38:00,
2013-02-03 19:44:00,-4.8,-13.0,30.09,North,7,0.0,0.0,67,0.00,CLR,SKC,0.00,0.0,WeatherDisplay:10.37,2013-02-04 01:44:00,
2013-02-03 19:49:00,-5.0,-13.2,30.09,North,7,1.1,1.1,67,0.00,CLR,SKC,0.00,0.0,WeatherDisplay:10.37,2013-02-04 01:49:00,
2013-02-03 19:54:00,-5.2,-13.1,30.09,North,7,0.0,0.0,68,0.00,CLR,SKC,0.00,0.0,WeatherDisplay:10.37,2013-02-04 01:54:00,
2013-02-03 19:59:00,-5.4,-13.3,30.09,North,7,0.0,0.0,68,0.00,CLR,SKC,0.00,0.0,WeatherDisplay:10.37,2013-02-04 01:59:00,
2013-02-03 20:04:00,-5.6,-13.4,30.09,North,7,0.0,0.0,68,0.00,CLR,SKC,0.00,0.0,WeatherDisplay:10.37,2013-02-04 02:04:00,
2013-02-03 20:09:00,-5.6,-13.4,30.09,North,7,0.0,0.0,68,0.00,CLR,SKC,0.00,0.0,WeatherDisplay:10.37,2013-02-04 02:09:00,
2013-02-03 20:14:00,-5.9,-13.7,30.09,North,7,0.0,0.0,68,0.00,CLR,SKC,0.00,0.0,WeatherDisplay:10.37,2013-02-04 02:14:00,
2013-02-03 20:20:00,-5.9,-13.4,30.09,North,7,0.0,0.0,69,0.00,CLR,SKC,0.00,0.0,WeatherDisplay:10.37,2013-02-04 02:20:00,
2013-02-03 20:25:00,-5.9,-13.4,30.09,North,7,0.0,0.0,69,0.00,CLR,SKC,0.00,0.0,WeatherDisplay:10.37,2013-02-04 02:25:00,
2013-02-03 20:30:00,-6.1,-13.6,30.09,North,7,0.0,0.0,69,0.00,CLR,SKC,0.00,0.0,WeatherDisplay:10.37,2013-02-04 02:30:00,
2013-02-03 20:35:00,-6.1,-13.6,30.09,North,7,0.0,0.0,69,0.00,CLR,SKC,0.00,0.0,WeatherDisplay:10.37,2013-02-04 02:35:00,
2013-02-03 20:40:00,-6.1,-13.6,30.09,North,7,0.0,0.0,69,0.00,CLR,SKC,0.00,0.0,WeatherDisplay:10.37,2013-02-04 02:40:00,
2013-02-03 20:45:00,-6.3,-13.8,30.09,North,7,0.0,0.0,69,0.00,CLR,SKC,0.00,0.0,WeatherDisplay:10.37,2013-02-04 02:45:00,
2013-02-03 20:50:00,-6.3,-13.8,30.09,North,7,2.3,2.3,69,0.00,CLR,SKC,0.00,0.0,WeatherDisplay:10.37,2013-02-04 02:50:00,
2013-02-03 20:55:00,-6.3,-13.5,30.09,North,7,0.0,0.0,70,0.00,CLR,SKC,0.00,0.0,WeatherDisplay:10.37,2013-02-04 02:55:00,
2013-02-03 21:01:00,-6.5,-13.7,30.09,North,7,0.0,0.0,70,0.00,CLR,SKC,0.00,0.0,WeatherDisplay:10.37,2013-02-04 03:01:00,
2013-02-03 21:06:00,-6.5,-13.5,30.09,North,7,0.0,0.0,71,0.00,CLR,SKC,0.00,0.0,WeatherDisplay:10.37,2013-02-04 03:06:00,
2013-02-03 21:11:00,-6.5,-13.5,30.09,North,7,2.3,2.3,71,0.00,CLR,SKC,0.00,0.0,WeatherDisplay:10.37,2013-02-04 03:11:00,
2013-02-03 21:16:00,-6.8,-13.7,30.09,North,7,1.1,1.1,71,0.00,CLR,SKC,0.00,0.0,WeatherDisplay:10.37,2013-02-04 03:16:00,
2013-02-03 21:21:00,-6.8,-13.7,30.09,North,7,1.1,0.0,71,0.00,CLR,SKC,0.00,0.0,WeatherDisplay:10.37,2013-02-04 03:21:00,
2013-02-03 21:26:00,-6.8,-13.5,30.09,North,7,0.0,0.0,72,0.00,CLR,SKC,0.00,0.0,WeatherDisplay:10.37,2013-02-04 03:26:00,
2013-02-03 21:31:00,-6.8,-13.5,30.09,North,7,2.3,2.3,72,0.00,CLR,SKC,0.00,0.0,WeatherDisplay:10.37,2013-02-04 03:31:00,
2013-02-03 21:37:00,-7.0,-13.7,30.09,North,6,5.0,5.0,72,0.00,CLR,SKC,0.00,0.0,WeatherDisplay:10.37,2013-02-04 03:37:00,
2013-02-03 21:42:00,-7.0,-13.7,30.09,North,6,3.5,3.5,72,0.00,CLR,SKC,0.00,0.0,WeatherDisplay:10.37,2013-02-04 03:42:00,
2013-02-03 21:47:00,-7.0,-13.7,30.09,North,6,3.5,3.5,72,0.00,CLR,SKC,0.00,0.0,WeatherDisplay:10.37,2013-02-04 03:47:00,
2013-02-03 21:52:00,-7.0,-13.7,30.09,North,6,2.3,2.3,72,0.00,CLR,SKC,0.00,0.0,WeatherDisplay:10.37,2013-02-04 03:52:00,
2013-02-03 21:57:00,-7.0,-13.7,30.09,North,6,3.5,3.5,72,0.00,CLR,SKC,0.00,0.0,WeatherDisplay:10.37,2013-02-04 03:57:00,
2013-02-03 22:02:00,-7.0,-13.7,30.09,North,5,4.6,4.6,72,0.00,CLR,SKC,0.00,0.0,WeatherDisplay:10.37,2013-02-04 04:02:00,
2013-02-03 22:07:00,-7.2,-13.8,30.09,North,356,4.6,4.6,72,0.00,CLR,SKC,0.00,0.0,WeatherDisplay:10.37,2013-02-04 04:07:00,
2013-02-03 22:12:00,-7.2,-13.8,30.09,NNW,347,4.6,4.6,72,0.00,CLR,SKC,0.00,0.0,WeatherDisplay:10.37,2013-02-04 04:12:00,
2013-02-03 22:18:00,-7.2,-13.6,30.09,NNW,347,3.5,3.5,73,0.00,CLR,SKC,0.00,0.0,WeatherDisplay:10.37,2013-02-04 04:18:00,
2013-02-03 22:23:00,-7.2,-13.6,30.09,NNW,347,4.6,4.6,73,0.00,CLR,SKC,0.00,0.0,WeatherDisplay:10.37,2013-02-04 04:23:00,
2013-02-03 22:28:00,-7.2,-13.6,30.09,NNW,347,3.5,3.5,73,0.00,CLR,SKC,0.00,0.0,WeatherDisplay:10.37,2013-02-04 04:28:00,
2013-02-03 22:33:00,-7.2,-13.6,30.09,NNW,347,3.5,3.5,73,0.00,CLR,SKC,0.00,0.0,WeatherDisplay:10.37,2013-02-04 04:33:00,
2013-02-03 22:38:00,-7.2,-13.3,30.09,NNW,347,3.5,3.5,74,0.00,CLR,SKC,0.00,0.0,WeatherDisplay:10.37,2013-02-04 04:38:00,
2013-02-03 22:43:00,-7.2,-13.3,30.09,NNW,347,3.5,3.5,74,0.00,CLR,SKC,0.00,0.0,WeatherDisplay:10.37,2013-02-04 04:43:00,
2013-02-03 22:48:00,-7.2,-13.3,30.09,NNW,347,3.5,3.5,74,0.00,CLR,SKC,0.00,0.0,WeatherDisplay:10.37,2013-02-04 04:48:00,
2013-02-03 22:54:00,-7.0,-13.1,30.09,NNW,347,4.6,4.6,74,0.00,CLR,SKC,0.00,0.0,WeatherDisplay:10.37,2013-02-04 04:54:00,
2013-02-03 22:59:00,-7.0,-12.8,30.09,NNW,347,5.8,5.8,75,0.00,CLR,SKC,0.00,0.0,WeatherDisplay:10.37,2013-02-04 04:59:00,
2013-02-03 23:02:00,-7.0,-12.8,30.09,NNW,347,4.6,4.6,75,0.00,CLR,SKC,0.00,0.0,WeatherDisplay:10.37,2013-02-04 05:02:00,
2013-02-03 23:03:00,-7.0,-12.8,30.09,NNW,347,4.6,4.6,75,0.00,CLR,SKC,0.00,0.0,WeatherDisplay:10.37,2013-02-04 05:03:00,
2013-02-03 23:07:00,-6.8,-12.4,30.09,NNW,347,5.0,5.0,76,0.00,CLR,SKC,0.00,0.0,WeatherDisplay:10.37,2013-02-04 05:07:00,
2013-02-03 23:12:00,-6.5,-12.1,30.09,NNW,347,4.6,4.6,76,0.00,CLR,SKC,0.00,0.0,WeatherDisplay:10.37,2013-02-04 05:12:00,
2013-02-03 23:18:00,-6.3,-11.6,30.10,NNW,347,5.8,5.8,77,0.00,CLR,SKC,0.00,0.0,WeatherDisplay:10.37,2013-02-04 05:18:00,
2013-02-03 23:23:00,-6.3,-11.6,30.10,NNW,347,5.8,5.8,77,0.00,CLR,SKC,0.00,0.0,WeatherDisplay:10.37,2013-02-04 05:23:00,
2013-02-03 23:28:00,-6.1,-11.4,30.10,NNW,347,5.8,5.8,77,0.00,CLR,SKC,0.00,0.0,WeatherDisplay:10.37,2013-02-04 05:28:00,
2013-02-03 23:33:00,-5.9,-11.2,30.10,NNW,347,5.8,5.8,77,0.00,CLR,SKC,0.00,0.0,WeatherDisplay:10.37,2013-02-04 05:33:00,
2013-02-03 23:38:00,-5.9,-11.2,30.10,NNW,347,5.0,5.0,77,0.00,CLR,SKC,0.00,0.0,WeatherDisplay:10.37,2013-02-04 05:38:00,
2013-02-03 23:43:00,-5.9,-11.2,30.10,NNW,347,5.8,5.8,77,0.00,CLR,SKC,0.00,0.0,WeatherDisplay:10.37,2013-02-04 05:43:00,
2013-02-03 23:48:00,-5.6,-11.0,30.10,NNW,347,3.0,3.0,77,0.00,CLR,SKC,0.00,0.0,WeatherDisplay:10.37,2013-02-04 05:48:00,
2013-02-03 23:53:00,-5.6,-11.2,30.10,NNW,347,5.8,5.8,76,0.00,CLR,SKC,0.00,0.0,WeatherDisplay:10.37,2013-02-04 05:53:00,
2013-02-03 23:59:00,-5.6,-11.2,30.10,NNW,347,6.0,6.0,76,0.00,CLR,SKC,0.00,0.0,WeatherDisplay:10.37,2013-02-04 05:59:00,